Time;durP1;ratioP1;P1;durP2;ratioP2;P2;SDS_P1;SDS_P2;PMS_P1;PMS_P2;Temp;Humidity;BMP_temperature;BMP_pressure;BME280_temperature;BME280_humidity;BME280_pressure;Samples;Min_cycle;Max_cycle;Signal;HPM_P1;HPM_P2
2022/06/22 00:00:35;;;;;;;5.03;1.20;;;19.50;82.20;;;;;;5056200;28;20162;-49
2022/06/22 00:03:01;;;;;;;4.00;1.48;;;19.50;81.90;;;;;;5056180;28;20107;-50
2022/06/22 00:05:49;;;;;;;1.63;1.05;;;19.50;82.30;;;;;;5073760;28;20437;-46
2022/06/22 00:08:26;;;;;;;3.13;1.40;;;19.50;82.30;;;;;;5073470;28;20025;-47
2022/06/22 00:11:12;;;;;;;5.40;1.60;;;19.40;82.70;;;;;;5055836;28;20073;-52
2022/06/22 00:13:44;;;;;;;;;;;19.40;82.80;;;;;;5074131;28;20055;-49
2022/06/22 00:16:18;;;;;;;1.15;1.10;;;19.30;83.10;;;;;;5073511;28;20322;-47
2022/06/22 00:18:47;;;;;;;3.63;1.63;;;19.30;85.00;;;;;;5073063;28;20028;-47
2022/06/22 00:21:31;;;;;;;3.35;1.30;;;19.30;85.80;;;;;;5073524;28;20029;-53
2022/06/22 00:24:00;;;;;;;2.10;1.40;;;19.20;86.30;;;;;;5073499;28;20032;-44
2022/06/22 00:26:27;;;;;;;1.42;1.30;;;19.20;86.50;;;;;;5073436;28;20096;-50
2022/06/22 00:29:04;;;;;;;1.63;1.52;;;19.10;86.60;;;;;;5072545;28;20025;-48
2022/06/22 00:31:34;;;;;;;1.58;1.30;;;19.10;87.40;;;;;;5073286;28;20432;-48
2022/06/22 00:34:09;;;;;;;3.60;1.50;;;19.10;88.20;;;;;;5073410;28;20415;-45
2022/06/22 00:36:49;;;;;;;3.17;1.57;;;18.90;88.00;;;;;;5073593;28;20025;-47
2022/06/22 00:39:22;;;;;;;1.60;1.50;;;18.80;88.50;;;;;;5062112;22;20319;-48
2022/06/22 00:41:59;;;;;;;1.55;1.45;;;18.70;88.80;;;;;;5031706;28;20036;-46
2022/06/22 00:44:29;;;;;;;2.70;1.40;;;18.70;88.80;;;;;;5033170;28;20029;-45
2022/06/22 00:46:58;;;;;;;1.50;1.40;;;18.70;88.90;;;;;;5031519;28;20025;-47
2022/06/22 00:49:24;;;;;;;1.73;1.42;;;18.70;89.00;;;;;;5032874;28;20025;-48
2022/06/22 00:51:50;;;;;;;2.00;1.33;;;18.70;89.20;;;;;;5033436;28;20022;-48
2022/06/22 00:54:19;;;;;;;2.42;1.50;;;18.60;89.90;;;;;;5032888;28;20383;-45
2022/06/22 00:56:51;;;;;;;1.55;1.45;;;18.60;90.20;;;;;;5032999;28;20018;-47
2022/06/22 00:59:44;;;;;;;3.42;1.40;;;18.50;89.70;;;;;;5032887;28;20048;-47
2022/06/22 01:02:37;;;;;;;3.33;1.33;;;18.50;89.90;;;;;;5032687;28;20029;-46
2022/06/22 01:05:11;;;;;;;2.83;1.60;;;18.60;88.20;;;;;;5032781;28;20385;-45
2022/06/22 01:07:51;;;;;;;2.78;1.63;;;18.50;88.10;;;;;;5032558;28;20022;-47
2022/06/22 01:10:32;;;;;;;3.28;1.77;;;18.50;88.10;;;;;;5032669;28;20021;-48
2022/06/22 01:13:06;;;;;;;2.92;1.48;;;18.50;88.30;;;;;;5032603;28;20041;-46
2022/06/22 01:15:39;;;;;;;1.60;1.50;;;18.50;88.50;;;;;;5032602;28;20021;-46
2022/06/22 01:18:08;;;;;;;3.78;1.55;;;18.50;88.50;;;;;;5032046;28;20029;-48
2022/06/22 01:20:42;;;;;;;4.03;1.70;;;18.50;88.50;;;;;;5032464;28;20025;-46
2022/06/22 01:23:57;;;;;;;5.10;1.90;;;18.50;88.90;;;;;;5014833;28;20076;-47
2022/06/22 01:26:38;;;;;;;2.55;1.73;;;18.40;89.30;;;;;;5026232;28;20037;-45
2022/06/22 01:29:22;;;;;;;2.97;1.70;;;18.40;89.60;;;;;;5031993;28;20017;-48
2022/06/22 01:32:06;;;;;;;3.78;1.42;;;18.40;89.70;;;;;;5032244;28;20064;-48
2022/06/22 01:34:35;;;;;;;4.30;1.90;;;18.40;90.40;;;;;;5032189;28;20409;-45
2022/06/22 01:37:04;;;;;;;3.58;1.70;;;18.50;90.60;;;;;;5031908;28;20025;-47
2022/06/22 01:39:29;;;;;;;2.40;1.75;;;18.50;90.80;;;;;;5031941;28;20124;-45
2022/06/22 01:42:05;;;;;;;4.22;1.60;;;18.50;90.90;;;;;;5014341;28;20116;-53
2022/06/22 01:44:49;;;;;;;1.73;1.50;;;18.50;91.30;;;;;;5031914;28;20455;-46
2022/06/22 01:47:40;;;;;;;3.92;1.45;;;18.40;91.40;;;;;;5031701;28;20057;-48
2022/06/22 01:50:15;;;;;;;3.25;1.67;;;18.30;91.70;;;;;;5031916;28;20018;-45
2022/06/22 01:52:46;;;;;;;2.50;1.73;;;18.30;91.80;;;;;;5031776;28;20525;-47
2022/06/22 01:55:24;;;;;;;1.50;1.40;;;18.30;91.80;;;;;;5031657;28;20481;-45
2022/06/22 01:58:12;;;;;;;5.82;1.40;;;18.20;91.80;;;;;;5031444;28;20025;-49
2022/06/22 02:00:38;;;;;;;4.65;1.95;;;18.30;91.70;;;;;;5031720;28;20120;-45
2022/06/22 02:03:16;;;;;;;1.77;1.67;;;18.20;92.10;;;;;;5031413;28;20400;-45
2022/06/22 02:05:55;;;;;;;3.42;1.80;;;18.20;92.10;;;;;;5013864;28;20053;-46
2022/06/22 02:08:32;;;;;;;2.13;1.80;;;18.10;91.90;;;;;;5031200;28;20029;-49
2022/06/22 02:11:06;;;;;;;4.03;1.98;;;18.00;92.00;;;;;;5013907;28;20025;-47
2022/06/22 02:13:52;;;;;;;1.90;1.73;;;17.90;92.10;;;;;;5031434;28;20033;-46
2022/06/22 02:16:41;;;;;;;6.03;1.70;;;17.80;92.40;;;;;;5031496;28;20029;-46
2022/06/22 02:19:13;;;;;;;2.17;1.90;;;17.80;92.60;;;;;;5030814;28;20025;-45
2022/06/22 02:21:48;;;;;;;1.52;1.42;;;17.80;92.80;;;;;;5031571;28;20037;-45
2022/06/22 02:24:26;;;;;;;3.15;1.85;;;17.80;93.10;;;;;;5031493;28;20094;-46
2022/06/22 02:27:00;;;;;;;3.63;1.83;;;17.70;93.70;;;;;;5031038;28;20045;-48
2022/06/22 02:29:41;;;;;;;1.50;1.50;;;17.60;94.30;;;;;;5031836;28;20435;-47
2022/06/22 02:32:10;;;;;;;2.55;1.60;;;17.60;94.50;;;;;;5031396;28;20026;-46
2022/06/22 02:34:38;;;;;;;1.48;1.38;;;17.60;94.60;;;;;;5031332;28;20041;-46
2022/06/22 02:37:07;;;;;;;4.95;1.90;;;17.50;94.80;;;;;;5031039;28;20404;-47
2022/06/22 02:39:38;;;;;;;2.17;1.98;;;17.50;95.10;;;;;;5014494;28;20033;-47
2022/06/22 02:44:49;;;;;;;3.10;1.48;;;17.50;95.10;;;;;;5031397;28;20033;-46
2022/06/22 02:47:21;;;;;;;1.73;1.52;;;17.50;95.00;;;;;;5030921;28;20047;-46
2022/06/22 02:49:58;;;;;;;2.20;1.70;;;17.50;95.30;;;;;;5031321;28;20490;-45
2022/06/22 02:52:31;;;;;;;3.15;2.03;;;17.50;95.70;;;;;;5014002;28;20541;-46
2022/06/22 02:54:59;;;;;;;1.98;1.70;;;17.50;95.90;;;;;;5017402;28;20568;-46
2022/06/22 02:57:43;;;;;;;3.38;1.73;;;17.50;95.70;;;;;;5034668;28;20037;-46
2022/06/22 03:00:09;;;;;;;1.67;1.58;;;17.50;95.70;;;;;;5035092;28;20064;-46
2022/06/22 03:02:36;;;;;;;3.63;1.67;;;17.60;95.20;;;;;;5035106;28;20440;-48
2022/06/22 03:05:05;;;;;;;3.50;1.85;;;17.60;94.40;;;;;;5034989;28;20441;-45
2022/06/22 03:07:34;;;;;;;3.90;1.80;;;17.60;94.40;;;;;;5034475;28;20064;-47
2022/06/22 03:10:02;;;;;;;4.07;2.13;;;17.60;94.30;;;;;;5034930;28;20075;-45
2022/06/22 03:12:28;;;;;;;1.65;1.55;;;17.70;94.30;;;;;;5034885;28;20040;-49
2022/06/22 03:15:05;;;;;;;3.22;1.70;;;17.70;94.30;;;;;;5034817;28;20493;-46
2022/06/22 03:17:35;;;;;;;2.20;1.90;;;17.70;94.00;;;;;;5033851;28;20037;-47
2022/06/22 03:20:12;;;;;;;2.67;1.63;;;17.80;94.00;;;;;;5017077;28;20061;-48
2022/06/22 03:22:49;;;;;;;2.75;2.00;;;17.80;94.00;;;;;;5016813;28;20045;-47
2022/06/22 03:25:31;;;;;;;5.70;1.90;;;17.80;93.90;;;;;;5034583;28;20068;-51
2022/06/22 03:28:05;;;;;;;5.85;1.80;;;17.80;94.00;;;;;;5034201;28;20068;-47
2022/06/22 03:30:45;;;;;;;3.00;1.58;;;17.80;94.00;;;;;;5034598;28;20021;-47
2022/06/22 03:33:15;;;;;;;2.03;1.75;;;17.70;94.00;;;;;;5034523;28;20489;-47
2022/06/22 03:35:51;;;;;;;4.55;1.73;;;17.80;94.00;;;;;;5034352;28;20029;-49
2022/06/22 03:38:31;;;;;;;3.97;2.10;;;17.80;93.80;;;;;;5033946;28;20056;-46
2022/06/22 03:41:05;;;;;;;2.33;1.40;;;17.90;94.00;;;;;;5018527;28;20075;-46
2022/06/22 03:43:52;;;;;;;3.05;1.70;;;17.80;93.90;;;;;;5034044;28;20113;-47
2022/06/22 03:46:24;;;;;;;6.20;2.08;;;17.80;94.00;;;;;;5033986;28;20033;-46
2022/06/22 03:49:10;;;;;;;2.28;1.70;;;17.70;94.00;;;;;;5033978;28;20013;-46
2022/06/22 03:52:12;;;;;;;1.70;1.55;;;17.70;94.20;;;;;;5034186;28;20021;-46
2022/06/22 03:54:47;;;;;;;3.45;1.83;;;17.60;94.30;;;;;;5034047;28;20428;-46
2022/06/22 03:57:16;;;;;;;5.38;1.90;;;17.60;94.40;;;;;;5033739;28;20481;-48
2022/06/22 03:59:45;;;;;;;3.40;1.90;;;17.60;94.30;;;;;;5033927;28;20104;-45
2022/06/22 04:02:11;;;;;;;4.43;1.75;;;17.70;94.20;;;;;;5033612;28;20071;-47
2022/06/22 04:04:37;;;;;;;1.60;1.33;;;17.70;94.20;;;;;;5032833;28;20029;-47
2022/06/22 04:07:03;;;;;;;1.55;1.45;;;17.60;94.20;;;;;;5033582;28;20017;-47
2022/06/22 04:09:30;;;;;;;4.03;2.05;;;17.60;94.40;;;;;;5033731;28;20029;-45
2022/06/22 04:12:06;;;;;;;3.80;1.80;;;17.70;94.20;;;;;;5033826;28;20091;-49
2022/06/22 04:14:41;;;;;;;2.15;1.77;;;17.70;94.30;;;;;;5033689;28;20488;-46
2022/06/22 04:17:15;;;;;;;7.97;2.85;;;17.80;94.10;;;;;;5033326;28;20108;-46
2022/06/22 04:19:59;;;;;;;4.00;1.85;;;17.90;94.10;;;;;;5033592;28;20029;-48
2022/06/22 04:22:27;;;;;;;2.38;1.73;;;17.90;94.20;;;;;;5015834;28;20025;-47
2022/06/22 04:25:09;;;;;;;2.97;1.60;;;18.00;93.70;;;;;;5033717;28;20370;-45
2022/06/22 04:27:39;;;;;;;2.10;1.40;;;17.90;93.90;;;;;;5033646;28;20029;-46
2022/06/22 04:30:12;;;;;;;3.92;2.42;;;17.90;94.00;;;;;;5033550;28;20385;-47
2022/06/22 04:33:01;;;;;;;1.70;1.60;;;17.90;94.20;;;;;;5015798;28;20068;-47
2022/06/22 04:35:52;;;;;;;3.67;1.80;;;17.80;94.40;;;;;;5033281;28;20531;-46
2022/06/22 04:38:27;;;;;;;8.95;2.45;;;18.00;94.30;;;;;;5033116;28;20449;-47
2022/06/22 04:41:11;;;;;;;;;;;17.90;94.50;;;;;;5034176;28;20040;-46
2022/06/22 04:43:37;;;;;;;6.90;2.00;;;17.90;94.50;;;;;;5032774;28;19913;-45
2022/06/22 04:46:06;;;;;;;3.13;2.00;;;17.80;94.70;;;;;;5033065;28;20022;-44
2022/06/22 04:48:42;;;;;;;6.22;2.55;;;17.80;94.80;;;;;;5033302;28;20036;-45
2022/06/22 04:51:24;;;;;;;5.70;2.20;;;17.80;94.60;;;;;;5033742;28;20032;-46
2022/06/22 04:53:59;;;;;;;10.70;2.30;;;17.90;94.50;;;;;;5033464;28;20047;-46
2022/06/22 04:56:36;;;;;;;7.78;2.05;;;18.00;94.40;;;;;;5033506;28;20030;-46
2022/06/22 04:59:03;;;;;;;5.22;1.33;;;18.10;94.30;;;;;;5033017;28;20037;-46
2022/06/22 05:01:40;;;;;;;2.17;1.60;;;18.20;94.00;;;;;;5033490;28;20108;-46
2022/06/22 05:04:13;;;;;;;2.10;1.63;;;18.30;94.00;;;;;;5032940;28;20033;-45
2022/06/22 05:06:45;;;;;;;2.15;1.60;;;18.40;93.70;;;;;;5031452;28;20396;-46
2022/06/22 05:09:20;;;;;;;5.40;1.63;;;18.60;93.50;;;;;;5012872;28;20021;-46
2022/06/22 05:11:47;;;;;;;1.65;1.50;;;18.60;93.50;;;;;;5022359;28;20113;-47
2022/06/22 05:14:20;;;;;;;2.53;2.28;;;18.70;93.70;;;;;;5031610;28;20036;-46
2022/06/22 05:17:02;;;;;;;1.70;1.60;;;18.70;93.50;;;;;;5032199;28;20108;-46
2022/06/22 05:19:38;;;;;;;3.08;1.63;;;18.70;93.60;;;;;;5031822;28;20025;-46
2022/06/22 05:22:12;;;;;;;3.53;1.80;;;18.70;93.70;;;;;;5022441;28;20034;-45
2022/06/22 05:24:39;;;;;;;5.10;1.63;;;19.00;93.60;;;;;;5032366;28;20532;-47
2022/06/22 05:27:07;;;;;;;3.08;1.50;;;19.20;93.10;;;;;;5031944;28;20025;-46
2022/06/22 05:29:39;;;;;;;4.45;2.00;;;19.50;93.00;;;;;;5031990;28;20390;-45
2022/06/22 05:32:12;;;;;;;2.35;1.55;;;19.70;92.80;;;;;;5032497;28;20420;-47
2022/06/22 05:34:41;;;;;;;2.88;1.60;;;19.80;92.50;;;;;;5032176;28;20045;-46
2022/06/22 05:37:14;;;;;;;3.45;1.50;;;19.80;92.40;;;;;;5031672;28;20025;-46
2022/06/22 05:39:41;;;;;;;3.33;1.40;;;19.90;92.80;;;;;;5031920;28;20033;-47
2022/06/22 05:42:10;;;;;;;5.25;1.50;;;20.10;92.80;;;;;;5032245;28;20074;-48
2022/06/22 05:44:37;;;;;;;1.88;1.33;;;20.50;92.30;;;;;;5032331;28;20024;-46
2022/06/22 05:47:03;;;;;;;1.70;1.60;;;20.90;90.90;;;;;;5032170;28;20041;-51
2022/06/22 05:49:49;;;;;;;3.35;1.50;;;21.20;90.60;;;;;;5033597;28;20186;-48
2022/06/22 05:52:21;;;;;;;2.92;1.83;;;21.50;90.60;;;;;;5025302;28;20030;-46
2022/06/22 05:55:03;;;;;;;4.63;1.23;;;21.70;91.10;;;;;;5031289;28;20242;-44
2022/06/22 05:57:36;;;;;;;4.38;1.30;;;21.80;90.20;;;;;;5031408;28;20068;-46
2022/06/22 06:00:21;;;;;;;3.70;2.38;;;22.00;90.20;;;;;;5023254;28;20668;-47
2022/06/22 06:03:08;;;;;;;2.33;1.90;;;22.00;90.80;;;;;;5029999;28;20061;-49
2022/06/22 06:05:39;;;;;;;4.13;2.35;;;22.10;89.80;;;;;;5031461;28;20022;-47
2022/06/22 06:08:36;;;;;;;4.15;1.52;;;22.10;88.50;;;;;;5031250;28;20546;-48
2022/06/22 06:11:04;;;;;;;3.60;1.30;;;22.20;87.10;;;;;;5025784;28;20453;-50
2022/06/22 06:13:39;;;;;;;3.40;1.60;;;22.40;84.80;;;;;;5031237;28;20056;-46
2022/06/22 06:16:25;;;;;;;2.95;1.30;;;22.80;84.50;;;;;;5031932;28;20025;-48
2022/06/22 06:18:54;;;;;;;2.13;1.50;;;23.40;82.50;;;;;;5028583;28;20690;-47
2022/06/22 06:21:23;;;;;;;5.57;1.60;;;24.20;80.90;;;;;;5031686;28;20402;-46
2022/06/22 06:24:17;;;;;;;3.22;1.35;;;25.30;78.60;;;;;;5031473;28;20028;-48
2022/06/22 06:29:47;;;;;;;8.85;1.42;;;27.20;73.00;;;;;;5031544;28;20020;-49
2022/06/22 06:32:25;;;;;;;1.75;1.30;;;27.60;71.80;;;;;;5031449;28;20022;-50
2022/06/22 06:35:21;;;;;;;4.53;1.27;;;28.30;70.30;;;;;;5031506;28;20504;-47
2022/06/22 06:40:22;;;;;;;3.80;1.30;;;30.00;66.20;;;;;;5028631;28;20575;-51
2022/06/22 06:42:58;;;;;;;4.13;1.15;;;30.70;65.10;;;;;;5029997;28;20493;-44
2022/06/22 06:45:27;;;;;;;4.75;0.98;;;31.30;63.00;;;;;;5031495;28;20033;-46
2022/06/22 06:47:59;;;;;;;3.42;1.20;;;31.40;62.20;;;;;;5030887;28;20503;-45
2022/06/22 06:50:36;;;;;;;4.00;1.33;;;31.60;61.40;;;;;;5031716;28;20477;-47
2022/06/22 06:53:34;;;;;;;2.80;1.15;;;32.20;60.60;;;;;;5031411;28;20308;-45
2022/06/22 06:56:11;;;;;;;2.42;1.13;;;32.40;59.40;;;;;;5013535;28;20696;-48
2022/06/22 06:58:49;;;;;;;1.70;1.05;;;32.60;59.20;;;;;;5030851;28;20493;-46
2022/06/22 07:01:24;;;;;;;4.50;1.08;;;32.60;58.20;;;;;;5031689;28;20382;-48
2022/06/22 07:03:53;;;;;;;2.85;0.73;;;32.40;58.70;;;;;;5031057;28;20021;-46
2022/06/22 07:06:19;;;;;;;1.20;0.93;;;32.40;58.20;;;;;;5031143;28;20040;-46
2022/06/22 07:09:00;;;;;;;3.75;0.93;;;32.80;57.20;;;;;;5030677;28;20405;-48
2022/06/22 07:11:31;;;;;;;6.53;1.00;;;32.90;56.90;;;;;;5030961;28;20393;-45
2022/06/22 07:14:05;;;;;;;1.85;1.00;;;33.40;57.00;;;;;;5031170;28;20033;-44
2022/06/22 07:16:30;;;;;;;;;;;33.50;55.90;;;;;;5031520;28;20041;-46
2022/06/22 07:19:05;;;;;;;3.63;1.10;;;33.20;57.30;;;;;;5030699;28;19905;-46
2022/06/22 07:21:58;;;;;;;5.75;1.10;;;33.80;55.90;;;;;;5031020;28;20025;-46
2022/06/22 07:24:50;;;;;;;4.07;1.27;;;33.20;55.30;;;;;;5022581;28;20049;-48
2022/06/22 07:27:22;;;;;;;9.18;1.50;;;33.20;56.00;;;;;;5031041;28;20056;-49
2022/06/22 07:30:13;;;;;;;3.55;1.40;;;33.40;56.40;;;;;;5011872;28;20497;-47
2022/06/22 07:32:41;;;;;;;4.20;1.33;;;33.40;56.10;;;;;;5022021;28;20486;-46
2022/06/22 07:35:14;;;;;;;1.58;0.75;;;33.10;56.50;;;;;;4993470;28;20022;-48
2022/06/22 07:37:52;;;;;;;1.73;0.98;;;32.10;56.70;;;;;;5023255;28;20037;-51
2022/06/22 07:40:24;;;;;;;3.25;1.48;;;31.50;57.30;;;;;;5040880;28;20037;-51
2022/06/22 07:42:51;;;;;;;3.80;1.23;;;30.80;58.00;;;;;;5054111;28;20115;-47
2022/06/22 07:45:19;;;;;;;4.88;1.17;;;30.00;58.60;;;;;;5054051;28;20064;-51
2022/06/22 07:47:55;;;;;;;4.55;1.17;;;29.40;59.20;;;;;;5041928;28;20029;-48
2022/06/22 07:50:46;;;;;;;3.20;1.17;;;29.10;60.10;;;;;;5033840;28;20021;-47
2022/06/22 07:53:25;;;;;;;3.20;0.90;;;29.20;60.70;;;;;;5016265;28;20401;-49
2022/06/22 07:56:04;;;;;;;4.32;1.30;;;29.40;60.90;;;;;;5031292;28;21557;-51
2022/06/22 07:58:39;;;;;;;3.10;1.02;;;29.90;59.70;;;;;;5023426;28;20021;-50
2022/06/22 08:01:10;;;;;;;9.05;1.17;;;29.80;58.60;;;;;;5033975;28;20405;-59
2022/06/22 08:03:49;;;;;;;1.65;1.10;;;29.80;58.20;;;;;;5032191;28;20040;-48
2022/06/22 08:06:37;;;;;;;3.63;1.20;;;29.60;57.70;;;;;;5033050;28;20021;-51
2022/06/22 08:09:13;;;;;;;1.75;1.50;;;29.00;60.10;;;;;;5032855;28;20030;-48
2022/06/22 08:11:49;;;;;;;3.45;1.30;;;29.10;59.70;;;;;;5033881;28;20032;-47
2022/06/22 08:14:25;;;;;;;2.28;1.20;;;29.40;60.00;;;;;;5033856;28;20401;-45
2022/06/22 08:16:58;;;;;;;2.45;1.10;;;30.10;59.20;;;;;;5033582;28;20082;-45
2022/06/22 08:19:27;;;;;;;6.65;2.70;;;30.50;58.30;;;;;;5033877;28;20025;-48
2022/06/22 08:21:58;;;;;;;7.57;1.23;;;30.50;58.70;;;;;;5033659;28;20025;-51
2022/06/22 08:24:23;;;;;;;3.00;1.27;;;30.70;59.40;;;;;;5032908;28;20485;-44
2022/06/22 08:26:51;;;;;;;5.25;1.35;;;30.50;58.60;;;;;;5033265;28;20045;-47
2022/06/22 08:29:22;;;;;;;2.22;1.40;;;30.20;59.10;;;;;;5033317;28;20400;-48
2022/06/22 08:31:56;;;;;;;6.60;1.13;;;30.40;60.00;;;;;;5033069;28;20025;-48
2022/06/22 08:34:32;;;;;;;2.75;1.00;;;30.80;59.40;;;;;;5031915;28;20036;-46
2022/06/22 08:37:06;;;;;;;5.25;1.42;;;31.30;58.40;;;;;;5030828;28;20021;-49
2022/06/22 08:39:31;;;;;;;4.35;1.38;;;31.10;56.90;;;;;;5032886;28;20030;-48
2022/06/22 08:42:28;;;;;;;5.78;1.17;;;30.70;57.70;;;;;;5033248;28;20041;-48
2022/06/22 08:45:14;;;;;;;2.75;1.15;;;30.30;58.20;;;;;;5033447;28;20108;-45
2022/06/22 08:48:17;;;;;;;5.63;1.48;;;30.00;58.50;;;;;;5032399;28;20618;-48
2022/06/22 08:50:53;;;;;;;6.95;1.13;;;30.00;58.70;;;;;;5032462;28;20045;-46
2022/06/22 08:53:46;;;;;;;0.85;0.82;;;30.00;59.10;;;;;;5033184;28;20034;-44
2022/06/22 08:56:18;;;;;;;1.20;1.10;;;29.80;57.70;;;;;;5032589;28;20062;-47
2022/06/22 08:58:54;;;;;;;5.10;1.17;;;29.70;57.60;;;;;;5032357;28;20061;-52
2022/06/22 09:01:57;;;;;;;5.00;1.05;;;29.50;58.20;;;;;;5032864;28;20091;-48
2022/06/22 09:04:41;;;;;;;23.02;16.92;;;29.30;58.20;;;;;;5014746;28;20040;-48
2022/06/22 09:07:26;;;;;;;;;;;29.30;58.90;;;;;;5032701;28;20059;-48
2022/06/22 09:09:54;;;;;;;1.83;1.17;;;29.10;58.50;;;;;;5032792;28;19909;-46
2022/06/22 09:12:38;;;;;;;9.05;1.20;;;28.80;58.30;;;;;;5032704;28;20025;-48
2022/06/22 09:15:27;;;;;;;2.85;1.58;;;28.60;59.00;;;;;;5032370;28;20096;-46
2022/06/22 09:18:04;;;;;;;3.20;0.95;;;28.40;58.70;;;;;;5032241;28;20014;-52
2022/06/22 09:20:37;;;;;;;4.78;0.90;;;28.10;59.50;;;;;;5032663;28;20116;-46
2022/06/22 09:23:30;;;;;;;3.70;1.17;;;27.60;59.20;;;;;;5032407;28;20068;-48
2022/06/22 09:26:16;;;;;;;2.65;1.40;;;27.60;60.10;;;;;;5032091;28;20048;-51
2022/06/22 09:29:13;;;;;;;1.70;1.50;;;27.50;60.70;;;;;;5031913;28;20037;-50
2022/06/22 09:32:10;;;;;;;6.40;1.13;;;27.40;61.10;;;;;;5032226;28;20022;-46
2022/06/22 09:35:02;;;;;;;2.00;1.45;;;27.50;60.30;;;;;;5032404;28;20025;-46
2022/06/22 09:38:02;;;;;;;4.78;1.45;;;27.50;61.30;;;;;;5031994;28;20036;-46
2022/06/22 09:41:05;;;;;;;3.30;1.20;;;27.40;60.90;;;;;;5032256;28;20025;-47
2022/06/22 09:43:30;;;;;;;3.20;1.20;;;27.60;60.70;;;;;;5032034;28;20022;-49
2022/06/22 09:45:56;;;;;;;1.20;1.10;;;27.80;60.00;;;;;;5031861;28;20036;-48
2022/06/22 09:48:32;;;;;;;3.42;0.98;;;27.80;60.00;;;;;;5031430;28;20318;-49
2022/06/22 09:51:06;;;;;;;16.20;4.00;;;27.80;59.80;;;;;;5031921;28;20025;-47
2022/06/22 09:53:59;;;;;;;4.90;1.73;;;27.90;60.40;;;;;;5031951;28;20025;-45
2022/06/22 09:57:02;;;;;;;3.65;1.50;;;28.00;59.70;;;;;;5031891;28;20061;-50
2022/06/22 09:59:45;;;;;;;5.78;1.45;;;28.20;59.20;;;;;;5032124;28;20432;-46
2022/06/22 10:02:44;;;;;;;1.58;1.17;;;28.40;59.50;;;;;;5031169;28;20034;-53
2022/06/22 10:05:09;;;;;;;5.57;1.75;;;28.50;58.50;;;;;;5031621;28;20026;-50
2022/06/22 10:07:41;;;;;;;2.22;1.08;;;28.40;58.70;;;;;;5031273;28;20024;-53
2022/06/22 10:10:09;;;;;;;6.43;1.58;;;28.60;58.70;;;;;;5031640;28;20029;-47
2022/06/22 10:13:13;;;;;;;1.35;1.25;;;28.80;58.30;;;;;;5031747;28;20026;-48
2022/06/22 10:16:06;;;;;;;2.45;1.40;;;28.60;58.40;;;;;;5000732;28;20063;-49
2022/06/22 10:18:44;;;;;;;14.13;6.50;;;28.60;57.00;;;;;;5031321;28;20034;-48
2022/06/22 10:21:24;;;;;;;23.15;17.70;;;28.50;57.40;;;;;;5031455;28;20056;-48
2022/06/22 10:24:30;;;;;;;2.10;1.90;;;28.50;58.00;;;;;;5030507;28;20036;-51
2022/06/22 10:27:20;;;;;;;4.53;1.48;;;28.50;58.60;;;;;;5031506;28;20097;-47
2022/06/22 10:30:14;;;;;;;1.77;1.20;;;28.70;56.40;;;;;;5030459;28;20060;-46
2022/06/22 10:33:02;;;;;;;4.43;1.52;;;28.70;56.10;;;;;;5030897;28;20409;-54
2022/06/22 10:35:37;;;;;;;1.77;1.30;;;28.60;55.60;;;;;;5030586;28;20029;-49
2022/06/22 10:38:26;;;;;;;5.60;1.20;;;28.60;56.10;;;;;;5030705;28;20053;-50
2022/06/22 10:47:13;;;;;;;;;;;28.40;55.60;;;;;;5031679;28;20033;-47
2022/06/22 10:49:56;;;;;;;2.10;1.23;;;28.50;56.80;;;;;;5030791;28;19912;-49
2022/06/22 10:52:36;;;;;;;2.15;1.02;;;28.60;57.70;;;;;;5023199;28;20025;-50
2022/06/22 10:55:32;;;;;;;1.38;1.27;;;28.60;57.80;;;;;;5030736;28;20393;-49
2022/06/22 10:58:35;;;;;;;6.53;1.30;;;28.60;57.70;;;;;;5022440;28;20057;-50
2022/06/22 11:01:12;;;;;;;7.03;1.40;;;28.70;58.30;;;;;;5028247;28;20029;-48
2022/06/22 11:04:08;;;;;;;3.42;1.33;;;28.60;59.00;;;;;;5031066;28;20382;-50
2022/06/22 11:07:09;;;;;;;1.30;1.20;;;28.70;58.80;;;;;;5031052;28;20051;-49
2022/06/22 11:09:44;;;;;;;5.57;1.30;;;28.60;58.20;;;;;;5030279;28;20041;-47
2022/06/22 11:12:23;;;;;;;73.55;56.80;;;28.50;58.60;;;;;;5030812;28;20041;-48
2022/06/22 11:14:57;;;;;;;56.72;43.45;;;28.40;58.90;;;;;;5031563;28;20029;-51
2022/06/22 11:17:45;;;;;;;3.58;2.65;;;28.40;59.00;;;;;;5016193;28;20052;-49
2022/06/22 11:20:14;;;;;;;4.55;1.30;;;28.50;57.70;;;;;;5022135;28;20101;-49
2022/06/22 11:22:46;;;;;;;2.55;1.40;;;28.40;57.90;;;;;;5034378;28;20065;-47
2022/06/22 11:32:02;;;;;;;3.95;1.33;;;28.60;58.60;;;;;;5033856;28;20072;-44
2022/06/22 11:34:59;;;;;;;4.38;1.40;;;28.60;58.50;;;;;;5016353;28;20147;-46
2022/06/22 11:37:37;;;;;;;8.15;1.65;;;28.60;58.40;;;;;;5033730;28;20036;-51
2022/06/22 11:40:22;;;;;;;3.53;1.65;;;28.50;58.10;;;;;;5020473;28;20036;-48
2022/06/22 11:42:48;;;;;;;;;;;28.40;58.60;;;;;;5020844;28;20389;-50
2022/06/22 11:45:54;;;;;;;2.85;1.55;;;28.50;59.00;;;;;;5014408;28;19905;-50
2022/06/22 11:48:54;;;;;;;7.65;1.77;;;28.50;59.20;;;;;;5032996;28;20684;-52
2022/06/22 11:51:39;;;;;;;4.70;1.75;;;28.50;58.00;;;;;;5033923;28;20559;-50
2022/06/22 11:54:23;;;;;;;4.25;1.50;;;28.40;58.80;;;;;;5034045;28;20477;-47
2022/06/22 11:57:07;;;;;;;3.92;1.25;;;28.30;59.50;;;;;;5027457;28;20034;-52
2022/06/22 11:59:59;;;;;;;3.00;1.80;;;28.30;59.50;;;;;;5023494;28;20083;-49
2022/06/22 12:02:53;;;;;;;1.17;1.08;;;28.40;59.00;;;;;;5033220;28;20037;-48
2022/06/22 12:05:28;;;;;;;2.00;1.35;;;28.50;57.60;;;;;;5018041;28;20394;-50
2022/06/22 12:08:24;;;;;;;3.47;1.10;;;28.60;59.00;;;;;;5013542;28;20385;-48
2022/06/22 12:11:17;;;;;;;3.05;1.50;;;28.70;58.10;;;;;;5031729;28;20033;-47
2022/06/22 12:16:52;;;;;;;3.97;1.40;;;28.80;57.70;;;;;;5025199;28;20420;-49
2022/06/22 12:19:47;;;;;;;33.80;29.63;;;28.80;57.30;;;;;;5033682;28;20048;-51
2022/06/22 12:22:28;;;;;;;28.17;22.85;;;28.90;58.50;;;;;;5033563;28;20057;-46
2022/06/22 12:24:59;;;;;;;2.90;1.95;;;28.80;58.20;;;;;;5032375;28;20611;-52
2022/06/22 12:27:37;;;;;;;1.85;1.40;;;28.60;59.00;;;;;;5033254;28;20382;-50
2022/06/22 12:30:27;;;;;;;3.30;2.05;;;28.50;58.90;;;;;;5033368;28;20053;-53
2022/06/22 12:33:23;;;;;;;1.70;1.60;;;28.20;59.10;;;;;;5028955;28;20040;-52
2022/06/22 12:35:56;;;;;;;6.30;1.50;;;28.10;58.40;;;;;;5022575;28;20044;-51
2022/06/22 12:38:47;;;;;;;2.25;1.50;;;28.10;58.70;;;;;;5039300;22;20030;-51
2022/06/22 12:41:39;;;;;;;2.05;1.48;;;28.00;59.30;;;;;;5012123;28;20104;-48
2022/06/22 12:44:35;;;;;;;3.25;1.75;;;27.90;58.50;;;;;;5013607;28;20413;-50
2022/06/22 12:47:19;;;;;;;3.22;1.40;;;27.90;59.40;;;;;;5010508;28;20026;-49
2022/06/22 12:50:21;;;;;;;5.28;1.50;;;27.80;60.70;;;;;;5007813;28;20036;-51
2022/06/22 12:52:54;;;;;;;5.50;1.48;;;27.70;62.80;;;;;;5033199;28;20459;-51
2022/06/22 12:55:27;;;;;;;5.25;2.05;;;27.60;62.30;;;;;;5033202;28;20033;-50
2022/06/22 12:58:05;;;;;;;4.57;1.58;;;27.50;62.00;;;;;;5032959;28;20041;-52
2022/06/22 13:00:31;;;;;;;3.38;1.65;;;27.30;62.80;;;;;;5033513;28;20037;-49
2022/06/22 13:02:58;;;;;;;7.03;2.13;;;27.20;64.90;;;;;;5027355;28;20034;-50
2022/06/22 13:05:27;;;;;;;2.15;1.70;;;27.10;64.70;;;;;;5019481;28;20033;-52
2022/06/22 13:07:57;;;;;;;4.10;1.67;;;27.10;63.90;;;;;;5032660;28;20066;-49
2022/06/22 13:10:26;;;;;;;7.82;1.92;;;27.20;65.10;;;;;;5033289;28;20021;-52
2022/06/22 13:13:06;;;;;;;3.53;1.67;;;26.90;66.90;;;;;;5033171;28;20039;-52
2022/06/22 13:15:48;;;;;;;3.85;1.50;;;26.80;68.80;;;;;;5032812;28;20108;-52
2022/06/22 13:18:30;;;;;;;8.52;2.05;;;26.80;67.00;;;;;;5031941;28;20061;-49
2022/06/22 13:21:18;;;;;;;4.90;1.90;;;26.70;66.90;;;;;;5032663;28;20025;-49
2022/06/22 13:24:02;;;;;;;6.22;1.73;;;26.70;69.30;;;;;;5032640;28;20025;-50
2022/06/22 13:26:51;;;;;;;6.38;3.03;;;26.60;67.60;;;;;;5019381;28;20030;-50
2022/06/22 13:29:31;;;;;;;15.50;9.65;;;26.50;67.00;;;;;;5012622;28;20500;-49
2022/06/22 13:32:00;;;;;;;7.15;2.42;;;26.40;67.50;;;;;;5014333;28;20033;-50
2022/06/22 13:34:37;;;;;;;4.30;2.35;;;26.30;68.50;;;;;;5004839;28;20032;-51
2022/06/22 13:37:15;;;;;;;7.50;1.92;;;26.20;68.20;;;;;;4994457;28;20025;-50
2022/06/22 13:40:26;;;;;;;9.48;1.80;;;26.20;68.30;;;;;;5031706;28;20550;-52
2022/06/22 13:43:15;;;;;;;6.82;1.92;;;26.30;68.30;;;;;;5031089;28;20041;-48
2022/06/22 13:46:04;;;;;;;1.80;1.70;;;26.30;68.80;;;;;;5028758;28;20641;-48
2022/06/22 13:49:08;;;;;;;8.45;3.13;;;26.30;68.70;;;;;;5017054;28;20469;-49
2022/06/22 13:51:57;;;;;;;7.80;1.98;;;26.30;69.00;;;;;;5021034;28;20017;-53
2022/06/22 13:54:54;;;;;;;5.35;2.30;;;26.20;70.10;;;;;;5015241;28;20021;-50
2022/06/22 13:57:38;;;;;;;11.68;2.85;;;26.20;70.20;;;;;;5018952;28;20053;-52
2022/06/22 14:00:41;;;;;;;5.23;2.50;;;26.20;70.70;;;;;;5036929;28;20031;-52
2022/06/22 14:03:36;;;;;;;14.52;2.90;;;26.30;70.10;;;;;;5021362;28;20038;-50
2022/06/22 14:06:17;;;;;;;9.47;3.20;;;26.20;70.90;;;;;;5006838;28;20022;-50
2022/06/22 14:09:09;;;;;;;12.15;4.78;;;26.10;70.80;;;;;;5011452;28;20018;-50
2022/06/22 14:11:46;;;;;;;17.85;2.80;;;26.00;71.20;;;;;;5015701;28;20437;-53